Terminal Aerodrome Forecast
Issued by NWS Austin/San Antonio, TX

Current Version | Previous Version | Text Only | Print | Product List | Glossary On
Versions: 1 2 3 4 5 6 7 8 9 10 11 12 13 14 15 16 17 18 19
599
FTUS44 KEWX 092339
TAFSAT
TAF
KSAT 092339Z 1000/1106 03006KT P6SM BKN070
     FM100100 VRB03KT P6SM BKN050
     FM101200 VRB03KT P6SM BKN025
     FM101800 15005KT P6SM OVC015
     FM110000 14006KT 6SM BR VCSH OVC009=

USA.gov is the U.S. government's official web portal to all federal, state and local government web resources and services.